K.pluto — 3EYQ3 — position and weather

sailwx.info

Track history (hours):
 
Tides and Currents Weather Stations Pressure Air Temp Water Temp Dewpoint Dewpoint Depression Visibility Wind Speed Wind Dir Waves Ship Positions

K.pluto

Last reported at 2015-Feb-13 03:22 UTC. Time now 2015-Mar-03 22:39 UTC.
Position N 36°01' W 005°11'.
Warning: this ship's position is 18 days out of date.

Length 170 m; draft 9.8 m.

Type: Cargo ship. MMSI: 373504000.

Date/timePositionNaut miles runAvg speedWind from/ knotsBaromVisibWave heightAir tempDewpointWater temp
2015-Feb-13 03:22N 36°01' W 005°11'1012.0
2015-Feb-13 02:33N 35°58' W 005°23'23610.5
2015-Feb-12 04:04N 37°41' W 009°49'4211.9
2015-Feb-12 00:33N 38°21' W 010°01'1212.2
2015-Feb-11 23:33N 38°33' W 010°04'1211.9
2015-Feb-11 22:33N 38°45' W 010°06'1211.5
2015-Feb-11 21:28N 38°57' W 010°06'1111.6
2015-Feb-11 20:30N 39°09' W 010°06'  
2015-Feb-08 19:20N 50°16' W 001°23'2613.4
2015-Feb-08 17:24N 50°23' W 000°44'1213.6
2015-Feb-08 16:32N 50°27' W 000°26'1812.9
2015-Feb-08 15:06N 50°32' E 000°02'712.3
2015-Feb-08 14:32N 50°34' E 000°12'1111.6
2015-Feb-08 13:33N 50°37' E 000°30'1110.8
2015-Feb-08 12:33N 50°43' E 000°44'1110.8
2015-Feb-08 11:33N 50°49' E 000°58'1211.9
2015-Feb-08 10:33N 50°56' E 001°13'1414.3
2015-Feb-08 09:34N 51°06' E 001°30'1414.3
2015-Feb-08 08:34N 51°16' E 001°46'1312.7
2015-Feb-08 07:34N 51°27' E 001°56'1111.4
2015-Feb-08 06:34N 51°35' E 002°08'1110.5
2015-Feb-08 05:33N 51°43' E 002°20'10 9.8
2015-Feb-08 04:30N 51°51' E 002°31'15710.9
2015-Feb-07 14:08N 54°04' E 004°48'611.2
2015-Feb-07 13:33N 54°05' E 004°59'1111.1
2015-Feb-07 12:33N 54°06' E 005°18'1110.6
2015-Feb-07 11:33N 54°08' E 005°36'1010.2
2015-Feb-07 10:32N 54°09' E 005°53'1310.1
2015-Feb-07 09:16N 54°11' E 006°15'910.3
2015-Feb-07 08:22N 54°12' E 006°31'1211.2
2015-Feb-07 07:16N 54°12' E 006°52'811.8
2015-Feb-07 06:33N 54°12' E 007°06'1211.9
2015-Feb-07 05:33N 54°12' E 007°27'1211.8
2015-Feb-07 04:33N 54°08' E 007°45'1211.9
2015-Feb-07 03:33N 54°02' E 008°03'1211.8
2015-Feb-07 02:33N 53°59' E 008°23'1110.7
2015-Feb-07 01:33N 53°56' E 008°40'9 8.6
2015-Feb-07 00:34N 53°50' E 008°51'9 8.8
2015-Feb-06 23:34N 53°53' E 009°05'10 9.6
2015-Feb-06 22:33N 53°50' E 009°21'1212.3
2015-Feb-06 21:34N 53°39' E 009°31'1111.0
2015-Feb-06 20:34N 53°34' E 009°47'7 6.7
2015-Feb-06 19:34N 53°31' E 009°57'1 0.5
2015-Feb-06 18:27N 53°30' E 009°58'0 0.0
2015-Feb-06 17:30N 53°30' E 009°58'0 0.0
2015-Feb-06 16:33N 53°30' E 009°58'0 0.0
2015-Feb-06 15:24N 53°30' E 009°58'0 0.0
2015-Feb-06 14:33N 53°30' E 009°58'0 0.0
2015-Feb-06 13:30N 53°30' E 009°58'0 0.0
2015-Feb-06 12:33N 53°30' E 009°58'0 0.0
2015-Feb-06 11:27N 53°30' E 009°58'0 0.0
2015-Feb-06 10:33N 53°30' E 009°58'0 0.0
2015-Feb-06 09:33N 53°30' E 009°58'0 0.0
2015-Feb-06 08:33N 53°30' E 009°58'0 0.0
2015-Feb-06 07:33N 53°30' E 009°58'0 0.0
2015-Feb-06 06:33N 53°30' E 009°58'0 0.0
2015-Feb-06 05:33N 53°30' E 009°58'0 0.0
2015-Feb-06 04:30N 53°30' E 009°58'0 0.0
2015-Feb-06 03:33N 53°30' E 009°58'0 0.0
2015-Feb-06 02:33N 53°30' E 009°58'0 0.0
2015-Feb-06 01:33N 53°30' E 009°58'0 0.0
2015-Feb-06 00:30N 53°30' E 009°58'0 0.0
2015-Feb-05 23:33N 53°30' E 009°58'0 0.0
2015-Feb-05 22:30N 53°30' E 009°58'0 0.0
2015-Feb-05 21:33N 53°30' E 009°58'0 0.0
2015-Feb-05 20:33N 53°30' E 009°58'0 0.0
2015-Feb-05 19:30N 53°30' E 009°58'0 0.0
2015-Feb-05 18:30N 53°30' E 009°58'0 0.0
2015-Feb-05 17:33N 53°30' E 009°58'0 0.0
2015-Feb-05 16:33N 53°30' E 009°58'0 0.0
2015-Feb-05 15:33N 53°30' E 009°58'0 0.0
2015-Feb-05 14:33N 53°30' E 009°58'0 0.0
2015-Feb-05 13:30N 53°30' E 009°58'0 0.0
2015-Feb-05 12:33N 53°30' E 009°58'0 0.0
2015-Feb-05 11:33N 53°30' E 009°58'0 0.0
2015-Feb-05 10:33N 53°30' E 009°58'0 0.0
2015-Feb-05 09:33N 53°30' E 009°58'0 0.0
2015-Feb-05 08:33N 53°30' E 009°58'0 0.0
2015-Feb-05 07:33N 53°30' E 009°58'0 0.0
2015-Feb-05 06:33N 53°30' E 009°58'0 0.0
2015-Feb-05 05:33N 53°30' E 009°58'0 0.0
2015-Feb-05 04:33N 53°30' E 009°58'0 0.0
2015-Feb-05 03:33N 53°30' E 009°58'0 0.0
2015-Feb-05 02:30N 53°30' E 009°58'0 0.0
2015-Feb-05 01:30N 53°30' E 009°58'0 0.0
2015-Feb-05 00:33N 53°30' E 009°58'0 0.0
2015-Feb-04 23:33N 53°30' E 009°58'0 0.0
2015-Feb-04 22:33N 53°30' E 009°58'0 0.0
2015-Feb-04 21:33N 53°30' E 009°58'0 0.0
2015-Feb-04 20:30N 53°30' E 009°58'0 0.0
2015-Feb-04 19:30N 53°30' E 009°58'0 0.0
2015-Feb-04 18:27N 53°30' E 009°58'0 0.0
2015-Feb-04 17:33N 53°30' E 009°58'0 0.0
2015-Feb-04 16:30N 53°30' E 009°58'0 0.0
2015-Feb-04 15:33N 53°30' E 009°58'0 0.0
2015-Feb-04 14:33N 53°30' E 009°58'0 0.0
2015-Feb-04 13:33N 53°30' E 009°58'0 0.0
2015-Feb-04 12:33N 53°30' E 009°58'5 5.4
2015-Feb-04 11:33N 53°33' E 009°50'1111.2
2015-Feb-04 10:33N 53°37' E 009°33'1111.1
2015-Feb-04 09:34N 53°47' E 009°23'10 9.9
2015-Feb-04 08:33N 53°53' E 009°10'8 8.1
2015-Feb-04 07:33N 53°51' E 008°56'9 8.6
2015-Feb-04 06:33N 53°53' E 008°42'8 8.4
2015-Feb-04 05:33N 53°58' E 008°31'10 9.5
2015-Feb-04 04:33N 53°60' E 008°15'1010.1
2015-Feb-04 03:33N 54°01' E 007°58'1010.4
2015-Feb-04 02:33N 54°07' E 007°43'1110.8
2015-Feb-04 01:33N 54°09' E 007°25'1111.1
2015-Feb-04 00:33N 54°09' E 007°06'3611.7
2015-Feb-03 21:29N 54°07' E 006°05'1212.4
2015-Feb-03 20:33N 54°05' E 005°45'1312.4
2015-Feb-03 19:32N 54°04' E 005°24'1212.6
2015-Feb-03 18:34N 54°02' E 005°03'1212.2
2015-Feb-03 17:33N 53°59' E 004°43'  
Track history (hours):
 
Tides and Currents Weather Stations Pressure Air Temp Water Temp Dewpoint Dewpoint Depression Visibility Wind Speed Wind Dir Waves Ship Positions

K.pluto

Last reported at 2015-Feb-13 03:22 UTC. Time now 2015-Mar-03 22:39 UTC.
Position N 36°01' W 005°11'.
Warning: this ship's position is 18 days out of date.

Length 170 m; draft 9.8 m.

Type: Cargo ship. MMSI: 373504000.

Date/timePositionNaut miles runAvg speedWind from/ knotsBaromVisibWave heightAir tempDewpointWater temp
2015-Feb-13 03:22N 36°01' W 005°11'1012.0
2015-Feb-13 02:33N 35°58' W 005°23'23610.5
2015-Feb-12 04:04N 37°41' W 009°49'4211.9
2015-Feb-12 00:33N 38°21' W 010°01'1212.2
2015-Feb-11 23:33N 38°33' W 010°04'1211.9
2015-Feb-11 22:33N 38°45' W 010°06'1211.5
2015-Feb-11 21:28N 38°57' W 010°06'1111.6
2015-Feb-11 20:30N 39°09' W 010°06'  
2015-Feb-08 19:20N 50°16' W 001°23'2613.4
2015-Feb-08 17:24N 50°23' W 000°44'1213.6
2015-Feb-08 16:32N 50°27' W 000°26'1812.9
2015-Feb-08 15:06N 50°32' E 000°02'712.3
2015-Feb-08 14:32N 50°34' E 000°12'1111.6
2015-Feb-08 13:33N 50°37' E 000°30'1110.8
2015-Feb-08 12:33N 50°43' E 000°44'1110.8
2015-Feb-08 11:33N 50°49' E 000°58'1211.9
2015-Feb-08 10:33N 50°56' E 001°13'1414.3
2015-Feb-08 09:34N 51°06' E 001°30'1414.3
2015-Feb-08 08:34N 51°16' E 001°46'1312.7
2015-Feb-08 07:34N 51°27' E 001°56'1111.4
2015-Feb-08 06:34N 51°35' E 002°08'1110.5
2015-Feb-08 05:33N 51°43' E 002°20'10 9.8
2015-Feb-08 04:30N 51°51' E 002°31'15710.9
2015-Feb-07 14:08N 54°04' E 004°48'611.2
2015-Feb-07 13:33N 54°05' E 004°59'1111.1
2015-Feb-07 12:33N 54°06' E 005°18'1110.6
2015-Feb-07 11:33N 54°08' E 005°36'1010.2
2015-Feb-07 10:32N 54°09' E 005°53'1310.1
2015-Feb-07 09:16N 54°11' E 006°15'910.3
2015-Feb-07 08:22N 54°12' E 006°31'1211.2
2015-Feb-07 07:16N 54°12' E 006°52'811.8
2015-Feb-07 06:33N 54°12' E 007°06'1211.9
2015-Feb-07 05:33N 54°12' E 007°27'1211.8
2015-Feb-07 04:33N 54°08' E 007°45'1211.9
2015-Feb-07 03:33N 54°02' E 008°03'1211.8
2015-Feb-07 02:33N 53°59' E 008°23'1110.7
2015-Feb-07 01:33N 53°56' E 008°40'9 8.6
2015-Feb-07 00:34N 53°50' E 008°51'9 8.8
2015-Feb-06 23:34N 53°53' E 009°05'10 9.6
2015-Feb-06 22:33N 53°50' E 009°21'1212.3
2015-Feb-06 21:34N 53°39' E 009°31'1111.0
2015-Feb-06 20:34N 53°34' E 009°47'7 6.7
2015-Feb-06 19:34N 53°31' E 009°57'1 0.5
2015-Feb-06 18:27N 53°30' E 009°58'0 0.0
2015-Feb-06 17:30N 53°30' E 009°58'0 0.0
2015-Feb-06 16:33N 53°30' E 009°58'0 0.0
2015-Feb-06 15:24N 53°30' E 009°58'0 0.0
2015-Feb-06 14:33N 53°30' E 009°58'0 0.0
2015-Feb-06 13:30N 53°30' E 009°58'0 0.0
2015-Feb-06 12:33N 53°30' E 009°58'0 0.0
2015-Feb-06 11:27N 53°30' E 009°58'0 0.0
2015-Feb-06 10:33N 53°30' E 009°58'0 0.0
2015-Feb-06 09:33N 53°30' E 009°58'0 0.0
2015-Feb-06 08:33N 53°30' E 009°58'0 0.0
2015-Feb-06 07:33N 53°30' E 009°58'0 0.0
2015-Feb-06 06:33N 53°30' E 009°58'0 0.0
2015-Feb-06 05:33N 53°30' E 009°58'0 0.0
2015-Feb-06 04:30N 53°30' E 009°58'0 0.0
2015-Feb-06 03:33N 53°30' E 009°58'0 0.0
2015-Feb-06 02:33N 53°30' E 009°58'0 0.0
2015-Feb-06 01:33N 53°30' E 009°58'0 0.0
2015-Feb-06 00:30N 53°30' E 009°58'0 0.0
2015-Feb-05 23:33N 53°30' E 009°58'0 0.0
2015-Feb-05 22:30N 53°30' E 009°58'0 0.0
2015-Feb-05 21:33N 53°30' E 009°58'0 0.0
2015-Feb-05 20:33N 53°30' E 009°58'0 0.0
2015-Feb-05 19:30N 53°30' E 009°58'0 0.0
2015-Feb-05 18:30N 53°30' E 009°58'0 0.0
2015-Feb-05 17:33N 53°30' E 009°58'0 0.0
2015-Feb-05 16:33N 53°30' E 009°58'0 0.0
2015-Feb-05 15:33N 53°30' E 009°58'0 0.0
2015-Feb-05 14:33N 53°30' E 009°58'0 0.0
2015-Feb-05 13:30N 53°30' E 009°58'0 0.0
2015-Feb-05 12:33N 53°30' E 009°58'0 0.0
2015-Feb-05 11:33N 53°30' E 009°58'0 0.0
2015-Feb-05 10:33N 53°30' E 009°58'0 0.0
2015-Feb-05 09:33N 53°30' E 009°58'0 0.0
2015-Feb-05 08:33N 53°30' E 009°58'0 0.0
2015-Feb-05 07:33N 53°30' E 009°58'0 0.0
2015-Feb-05 06:33N 53°30' E 009°58'0 0.0
2015-Feb-05 05:33N 53°30' E 009°58'0 0.0
2015-Feb-05 04:33N 53°30' E 009°58'0 0.0
2015-Feb-05 03:33N 53°30' E 009°58'0 0.0
2015-Feb-05 02:30N 53°30' E 009°58'0 0.0
2015-Feb-05 01:30N 53°30' E 009°58'0 0.0
2015-Feb-05 00:33N 53°30' E 009°58'0 0.0
2015-Feb-04 23:33N 53°30' E 009°58'0 0.0
2015-Feb-04 22:33N 53°30' E 009°58'0 0.0
2015-Feb-04 21:33N 53°30' E 009°58'0 0.0
2015-Feb-04 20:30N 53°30' E 009°58'0 0.0
2015-Feb-04 19:30N 53°30' E 009°58'0 0.0
2015-Feb-04 18:27N 53°30' E 009°58'0 0.0
2015-Feb-04 17:33N 53°30' E 009°58'0 0.0
2015-Feb-04 16:30N 53°30' E 009°58'0 0.0
2015-Feb-04 15:33N 53°30' E 009°58'0 0.0
2015-Feb-04 14:33N 53°30' E 009°58'0 0.0
2015-Feb-04 13:33N 53°30' E 009°58'0 0.0
2015-Feb-04 12:33N 53°30' E 009°58'5 5.4
2015-Feb-04 11:33N 53°33' E 009°50'1111.2
2015-Feb-04 10:33N 53°37' E 009°33'1111.1
2015-Feb-04 09:34N 53°47' E 009°23'10 9.9
2015-Feb-04 08:33N 53°53' E 009°10'8 8.1
2015-Feb-04 07:33N 53°51' E 008°56'9 8.6
2015-Feb-04 06:33N 53°53' E 008°42'8 8.4
2015-Feb-04 05:33N 53°58' E 008°31'10 9.5
2015-Feb-04 04:33N 53°60' E 008°15'1010.1
2015-Feb-04 03:33N 54°01' E 007°58'1010.4
2015-Feb-04 02:33N 54°07' E 007°43'1110.8
2015-Feb-04 01:33N 54°09' E 007°25'1111.1
2015-Feb-04 00:33N 54°09' E 007°06'3611.7
2015-Feb-03 21:29N 54°07' E 006°05'1212.4
2015-Feb-03 20:33N 54°05' E 005°45'1312.4
2015-Feb-03 19:32N 54°04' E 005°24'1212.6
2015-Feb-03 18:34N 54°02' E 005°03'1212.2
2015-Feb-03 17:33N 53°59' E 004°43'  

Dump ship's entire track history